createdAt,value
2023-01-20T00:01:04.347Z,68.52
2023-01-20T00:03:31.002Z,69.33
2023-01-20T00:06:02.617Z,69.60
2023-01-20T00:08:31.493Z,69.15
2023-01-20T00:10:58.119Z,69.24
2023-01-20T00:13:24.718Z,68.97
2023-01-20T00:15:51.814Z,68.86
2023-01-20T00:18:19.057Z,68.79
2023-01-20T00:20:45.776Z,68.98
2023-01-20T00:23:12.457Z,68.84
2023-01-20T00:25:41.407Z,68.60
2023-01-20T00:28:08.039Z,67.82
2023-01-20T00:30:34.714Z,68.07
2023-01-20T00:33:03.913Z,68.39
2023-01-20T00:35:32.987Z,68.67
2023-01-20T00:37:59.813Z,68.98
2023-01-20T00:40:26.445Z,67.99
2023-01-20T00:42:53.139Z,67.96
2023-01-20T00:45:19.798Z,68.31
2023-01-20T00:47:46.435Z,68.86
2023-01-20T00:50:13.015Z,69.05
2023-01-20T00:52:39.608Z,68.18
2023-01-20T00:55:06.504Z,68.25
2023-01-20T00:57:33.065Z,68.77
2023-01-20T00:59:59.673Z,67.73
2023-01-20T01:02:28.891Z,67.41
2023-01-20T01:04:55.533Z,66.93
2023-01-20T01:07:22.217Z,67.14
2023-01-20T01:09:49.096Z,66.38
2023-01-20T01:12:15.783Z,67.19
2023-01-20T01:14:42.833Z,67.02
2023-01-20T01:17:09.472Z,66.91
2023-01-20T01:19:36.086Z,67.07
2023-01-20T01:22:02.746Z,66.87
2023-01-20T01:24:29.405Z,67.09
2023-01-20T01:26:56.068Z,67.82
2023-01-20T01:29:25.118Z,67.88
2023-01-20T01:31:54.854Z,68.21
2023-01-20T01:34:21.426Z,68.22
2023-01-20T01:36:48.272Z,68.15
2023-01-20T01:39:15.260Z,67.68
2023-01-20T01:41:44.119Z,67.60
2023-01-20T01:44:11.612Z,68.19
2023-01-20T01:46:38.387Z,67.98
2023-01-20T01:49:07.554Z,67.87
2023-01-20T01:51:35.757Z,67.90
2023-01-20T01:54:03.568Z,67.53
2023-01-20T01:56:30.317Z,67.90
2023-01-20T01:59:00.312Z,67.51
2023-01-20T02:01:29.961Z,67.65
2023-01-20T02:03:58.133Z,67.93
2023-01-20T02:06:27.573Z,68.51
2023-01-20T02:08:57.369Z,68.50
2023-01-20T02:11:23.958Z,68.43
2023-01-20T02:13:53.041Z,67.56
2023-01-20T02:16:31.879Z,68.04
2023-01-20T02:19:01.672Z,67.74
2023-01-20T02:21:46.557Z,67.81
2023-01-20T02:24:31.912Z,67.47
2023-01-20T02:27:01.906Z,68.06
2023-01-20T02:29:43.987Z,67.98
2023-01-20T02:32:12.094Z,67.69
2023-01-20T02:34:41.037Z,68.71
2023-01-20T02:37:17.423Z,68.04
2023-01-20T02:39:50.330Z,67.89
2023-01-20T02:42:24.775Z,67.58
2023-01-20T02:44:53.176Z,67.78
2023-01-20T02:47:38.598Z,68.03
2023-01-20T02:50:09.887Z,67.91
2023-01-20T02:52:37.765Z,67.67
2023-01-20T02:55:05.651Z,67.27
2023-01-20T02:57:38.012Z,67.62
2023-01-20T03:00:09.098Z,68.05
2023-01-20T03:02:37.789Z,67.80
2023-01-20T03:05:10.769Z,67.29
2023-01-20T03:07:39.896Z,67.41
2023-01-20T03:10:10.723Z,68.46
2023-01-20T03:12:42.626Z,67.67
2023-01-20T03:15:14.446Z,67.86
2023-01-20T03:17:43.640Z,67.59
2023-01-20T03:20:13.583Z,67.00
2023-01-20T03:22:42.556Z,67.37
2023-01-20T03:25:12.220Z,66.93
2023-01-20T03:27:39.115Z,67.16
2023-01-20T03:30:15.817Z,67.67
2023-01-20T03:32:46.632Z,68.83
2023-01-20T03:35:16.499Z,68.93
2023-01-20T03:37:45.827Z,67.90
2023-01-20T03:40:12.739Z,68.15
2023-01-20T03:42:41.794Z,68.12
2023-01-20T03:45:15.567Z,67.25
2023-01-20T03:47:42.376Z,67.53
2023-01-20T03:50:18.099Z,67.87
2023-01-20T03:52:51.020Z,67.57
2023-01-20T03:55:21.384Z,66.99
2023-01-20T03:57:54.813Z,66.67
2023-01-20T04:00:21.699Z,66.88
2023-01-20T04:02:48.304Z,67.59
2023-01-20T04:05:17.842Z,66.77
2023-01-20T04:07:44.526Z,67.55
2023-01-20T04:10:11.373Z,66.52
2023-01-20T04:12:40.217Z,66.65
2023-01-20T04:15:07.369Z,66.78
2023-01-20T04:17:34.012Z,66.21
2023-01-20T04:20:00.987Z,67.13
2023-01-20T04:22:43.204Z,67.32
2023-01-20T04:25:13.059Z,67.37
2023-01-20T04:27:40.202Z,67.11
2023-01-20T04:30:09.671Z,67.72
2023-01-20T04:32:38.710Z,67.74
2023-01-20T04:35:05.475Z,67.14
2023-01-20T04:37:32.092Z,67.13
2023-01-20T04:40:01.273Z,66.59
2023-01-20T04:42:28.022Z,66.41
2023-01-20T04:44:54.753Z,67.14
2023-01-20T04:47:23.791Z,66.68
2023-01-20T04:49:50.650Z,66.42
2023-01-20T04:52:18.059Z,67.35
2023-01-20T04:54:44.702Z,66.79
2023-01-20T04:57:13.586Z,66.52
2023-01-20T04:59:45.200Z,66.58
2023-01-20T05:02:11.954Z,66.63
2023-01-20T05:04:38.564Z,66.27
2023-01-20T05:07:07.982Z,66.00
2023-01-20T05:09:37.976Z,66.30
2023-01-20T05:12:04.800Z,65.97
2023-01-20T05:14:31.707Z,66.45
2023-01-20T05:16:58.347Z,66.65
2023-01-20T05:19:25.093Z,66.79
2023-01-20T05:21:51.889Z,66.46
2023-01-20T05:24:18.653Z,65.58
2023-01-20T05:26:47.834Z,65.99
2023-01-20T05:29:17.561Z,65.78
2023-01-20T05:31:46.840Z,66.62
2023-01-20T05:34:17.786Z,66.51
2023-01-20T05:36:49.533Z,65.71
2023-01-20T05:39:18.559Z,66.19
2023-01-20T05:41:46.765Z,66.29
2023-01-20T05:44:17.101Z,65.80
2023-01-20T05:46:46.485Z,66.02
2023-01-20T05:49:15.789Z,66.25
2023-01-20T05:51:42.854Z,66.97
2023-01-20T05:54:10.751Z,66.81
2023-01-20T05:56:40.210Z,67.31
2023-01-20T05:59:10.177Z,67.30
2023-01-20T06:01:38.422Z,67.36
2023-01-20T06:04:05.611Z,66.49
2023-01-20T06:06:32.661Z,66.69
2023-01-20T06:08:59.749Z,67.54
2023-01-20T06:11:26.839Z,67.28
2023-01-20T06:14:15.821Z,67.16
2023-01-20T06:16:55.255Z,67.12
2023-01-20T06:19:27.657Z,67.67
2023-01-20T06:21:54.884Z,67.16
2023-01-20T06:24:21.872Z,67.48
2023-01-20T06:26:50.664Z,66.85
2023-01-20T06:29:20.191Z,67.60
2023-01-20T06:31:49.727Z,67.25
2023-01-20T06:34:16.598Z,67.80
2023-01-20T06:36:47.970Z,67.59
2023-01-20T06:39:17.177Z,67.45
2023-01-20T06:41:43.719Z,67.16
2023-01-20T06:44:11.449Z,66.60
2023-01-20T06:46:38.043Z,66.96
2023-01-20T06:49:04.731Z,67.08
2023-01-20T06:51:37.150Z,67.14
2023-01-20T06:54:03.785Z,66.97
2023-01-20T06:56:30.392Z,66.79
2023-01-20T06:58:59.179Z,66.29
2023-01-20T07:01:27.265Z,65.93
2023-01-20T07:03:54.051Z,66.38
2023-01-20T07:06:32.954Z,66.07
2023-01-20T07:09:02.054Z,66.00
2023-01-20T07:11:29.029Z,65.62
2023-01-20T07:13:55.664Z,65.00
2023-01-20T07:16:25.180Z,65.32
2023-01-20T07:18:52.244Z,66.01
2023-01-20T07:21:21.307Z,66.04
2023-01-20T07:23:50.449Z,65.97
2023-01-20T07:26:18.453Z,65.89
2023-01-20T07:28:45.311Z,65.06
2023-01-20T07:31:15.735Z,64.82
2023-01-20T07:33:42.432Z,65.37
2023-01-20T07:36:09.497Z,65.40
2023-01-20T07:38:39.200Z,64.83
2023-01-20T07:41:10.974Z,65.61
2023-01-20T07:43:42.668Z,65.65
2023-01-20T07:46:09.734Z,64.79
2023-01-20T07:48:38.924Z,65.21
2023-01-20T07:51:08.766Z,65.47
2023-01-20T07:53:36.352Z,64.52
2023-01-20T07:56:07.045Z,64.36
2023-01-20T07:58:33.946Z,64.58
2023-01-20T08:01:08.299Z,64.53
2023-01-20T08:03:37.595Z,64.46
2023-01-20T08:06:08.101Z,65.43
2023-01-20T08:08:34.970Z,65.12
2023-01-20T08:11:02.131Z,64.17
2023-01-20T08:13:31.170Z,64.36
2023-01-20T08:16:01.929Z,64.58
2023-01-20T08:18:28.839Z,64.13
2023-01-20T08:20:55.645Z,64.28
2023-01-20T08:23:22.329Z,63.75
2023-01-20T08:25:52.077Z,63.64
2023-01-20T08:28:18.657Z,63.84
2023-01-20T08:30:45.347Z,63.68
2023-01-20T08:33:14.459Z,64.26
2023-01-20T08:35:43.629Z,64.44
2023-01-20T08:38:12.685Z,64.04
2023-01-20T08:40:42.997Z,64.97
2023-01-20T08:43:12.053Z,64.83
2023-01-20T08:45:38.785Z,64.38
2023-01-20T08:48:08.847Z,64.33
2023-01-20T08:50:36.075Z,64.13
2023-01-20T08:53:05.155Z,64.42
2023-01-20T08:55:32.041Z,63.23
2023-01-20T08:57:58.658Z,63.89
2023-01-20T09:00:27.761Z,64.07
2023-01-20T09:02:55.816Z,63.95
2023-01-20T09:05:23.049Z,63.40
2023-01-20T09:07:52.116Z,63.61
2023-01-20T09:10:21.362Z,62.73
2023-01-20T09:12:49.060Z,63.58
2023-01-20T09:15:16.665Z,63.25
2023-01-20T09:17:46.056Z,63.02
2023-01-20T09:20:12.941Z,63.78
2023-01-20T09:22:40.515Z,63.49
2023-01-20T09:25:09.799Z,63.11
2023-01-20T09:27:36.677Z,63.04
2023-01-20T09:30:08.896Z,62.96
2023-01-20T09:32:35.755Z,61.02
2023-01-20T09:35:04.892Z,62.80
2023-01-20T09:37:50.343Z,63.13
2023-01-20T09:40:37.100Z,62.79
2023-01-20T09:43:24.456Z,63.15
2023-01-20T09:46:02.688Z,62.50
2023-01-20T09:49:00.197Z,62.54
2023-01-20T09:51:56.915Z,62.93
2023-01-20T09:54:24.636Z,62.57
2023-01-20T09:56:51.630Z,62.20
2023-01-20T09:59:29.205Z,62.21
2023-01-20T10:01:57.018Z,60.95
2023-01-20T10:04:33.136Z,61.49
2023-01-20T10:07:08.147Z,61.31
2023-01-20T10:09:55.099Z,61.84
2023-01-20T10:12:24.731Z,62.00
2023-01-20T10:15:02.365Z,62.43
2023-01-20T10:17:33.339Z,62.39
2023-01-20T10:20:04.011Z,61.46
2023-01-20T10:22:46.966Z,62.44
2023-01-20T10:25:23.152Z,61.50
2023-01-20T10:27:54.096Z,62.04
2023-01-20T10:30:24.588Z,61.63
2023-01-20T10:32:54.391Z,60.45
2023-01-20T10:35:22.846Z,60.94
2023-01-20T10:37:51.935Z,61.15
2023-01-20T10:40:24.237Z,60.72
2023-01-20T10:42:55.907Z,60.33
2023-01-20T10:45:29.026Z,60.84
2023-01-20T10:48:02.388Z,60.53
2023-01-20T10:51:01.488Z,60.15
2023-01-20T10:53:34.797Z,59.78
2023-01-20T10:56:17.140Z,59.46
2023-01-20T10:58:47.728Z,58.29
2023-01-20T11:01:16.014Z,58.20
2023-01-20T11:03:48.761Z,59.50
2023-01-20T11:06:22.732Z,59.48
2023-01-20T11:08:49.395Z,59.58
2023-01-20T11:11:17.105Z,59.99
2023-01-20T11:13:43.892Z,59.03
2023-01-20T11:16:18.810Z,58.94
2023-01-20T11:18:54.992Z,59.28
2023-01-20T11:21:26.083Z,59.60
2023-01-20T11:23:53.246Z,59.39
2023-01-20T11:26:27.764Z,58.67
2023-01-20T11:29:01.463Z,59.09
2023-01-20T11:31:34.349Z,59.26
2023-01-20T11:34:16.350Z,60.23
2023-01-20T11:36:46.009Z,60.58
2023-01-20T11:39:26.536Z,60.28
2023-01-20T11:42:31.360Z,59.92
2023-01-20T11:45:21.574Z,60.73
2023-01-20T11:48:03.986Z,61.11
2023-01-20T11:50:33.690Z,60.78
2023-01-20T11:53:13.323Z,61.13
2023-01-20T11:55:45.432Z,61.36
2023-01-20T11:58:16.848Z,61.89
2023-01-20T12:00:43.923Z,62.95
2023-01-20T12:03:10.579Z,61.79
2023-01-20T12:05:44.492Z,62.37
2023-01-20T12:08:13.604Z,62.34
2023-01-20T12:10:40.356Z,62.15
2023-01-20T12:13:13.868Z,62.71
2023-01-20T12:15:44.700Z,62.71
2023-01-20T12:18:19.172Z,63.29
2023-01-20T12:20:54.948Z,63.90
2023-01-20T12:23:45.967Z,63.53
2023-01-20T12:26:18.676Z,63.82
2023-01-20T12:28:56.692Z,62.58
2023-01-20T12:31:26.301Z,64.00
2023-01-20T12:34:16.237Z,63.74
2023-01-20T12:36:45.867Z,63.02
2023-01-20T12:39:21.767Z,63.89
2023-01-20T12:42:07.282Z,64.18
2023-01-20T12:44:34.067Z,64.10
2023-01-20T12:47:00.706Z,64.39
2023-01-20T12:49:45.998Z,64.91
2023-01-20T12:52:15.406Z,65.18
2023-01-20T12:54:51.114Z,64.83
2023-01-20T12:57:17.808Z,64.94
2023-01-20T12:59:52.895Z,65.34
2023-01-20T13:02:22.788Z,64.40
2023-01-20T13:04:49.591Z,65.36
2023-01-20T13:07:37.913Z,65.86
2023-01-20T13:10:14.860Z,66.21
2023-01-20T13:12:41.814Z,65.78
2023-01-20T13:15:15.463Z,66.82
2023-01-20T13:17:43.894Z,67.44
2023-01-20T13:20:21.619Z,66.92
2023-01-20T13:22:50.873Z,67.53
2023-01-20T13:25:19.393Z,67.49
2023-01-20T13:27:46.119Z,68.38
2023-01-20T13:30:31.972Z,68.33
2023-01-20T13:33:13.213Z,69.08
2023-01-20T13:35:50.107Z,69.40
2023-01-20T13:38:22.926Z,69.49
2023-01-20T13:40:50.922Z,69.95
2023-01-20T13:43:24.294Z,69.23
2023-01-20T13:46:03.433Z,68.87
2023-01-20T13:48:34.504Z,68.42
2023-01-20T13:51:17.099Z,69.43
2023-01-20T13:53:46.410Z,69.33
2023-01-20T13:56:25.645Z,68.59
2023-01-20T13:58:58.226Z,68.87
2023-01-20T14:01:25.313Z,70.70
2023-01-20T14:04:07.151Z,70.92
2023-01-20T14:06:36.353Z,71.52
2023-01-20T14:09:09.947Z,71.38
2023-01-20T14:11:39.045Z,71.55
2023-01-20T14:14:05.900Z,70.96
2023-01-20T14:16:35.559Z,71.68
2023-01-20T14:19:07.488Z,70.99
2023-01-20T14:21:39.523Z,72.09
2023-01-20T14:24:06.200Z,72.92
2023-01-20T14:26:33.321Z,73.08
2023-01-20T14:29:01.534Z,72.97
2023-01-20T14:31:35.181Z,72.24
2023-01-20T14:34:03.248Z,72.43
2023-01-20T14:36:30.943Z,72.85
2023-01-20T14:38:58.930Z,73.45
2023-01-20T14:41:26.553Z,73.20
2023-01-20T14:43:56.048Z,72.91
2023-01-20T14:46:28.195Z,73.26
2023-01-20T14:48:55.114Z,74.30
2023-01-20T14:51:22.240Z,73.23
2023-01-20T14:54:09.193Z,73.72
2023-01-20T14:56:35.779Z,74.56
2023-01-20T14:59:05.168Z,73.84
2023-01-20T15:01:32.227Z,73.42
2023-01-20T15:04:02.008Z,73.14
2023-01-20T15:06:31.498Z,73.78
2023-01-20T15:09:06.921Z,73.09
2023-01-20T15:11:34.496Z,73.30
2023-01-20T15:14:10.322Z,73.94
2023-01-20T15:16:37.185Z,74.58
2023-01-20T15:19:20.469Z,73.79
2023-01-20T15:21:48.205Z,74.69
2023-01-20T15:24:20.756Z,74.97
2023-01-20T15:26:50.981Z,74.96
2023-01-20T15:29:23.655Z,75.60
2023-01-20T15:31:53.172Z,75.06
2023-01-20T15:34:20.504Z,75.33
2023-01-20T15:36:47.889Z,74.88
2023-01-20T15:39:21.554Z,75.59
2023-01-20T15:41:57.282Z,76.45
2023-01-20T15:44:25.158Z,76.71
2023-01-20T15:46:52.403Z,76.92
2023-01-20T15:49:19.028Z,77.19
2023-01-20T15:51:45.740Z,77.70
2023-01-20T15:54:13.724Z,77.40
2023-01-20T15:56:40.875Z,77.29
2023-01-20T15:59:13.756Z,77.43
2023-01-20T16:01:40.537Z,77.48
2023-01-20T16:04:07.535Z,78.44
2023-01-20T16:06:34.777Z,78.72
2023-01-20T16:09:06.012Z,79.90
2023-01-20T16:11:32.664Z,79.68
2023-01-20T16:13:59.251Z,79.19
2023-01-20T16:16:29.795Z,79.05
2023-01-20T16:18:56.482Z,79.04
2023-01-20T16:21:23.103Z,80.02
2023-01-20T16:23:52.656Z,79.06
2023-01-20T16:26:21.210Z,79.58
2023-01-20T16:28:47.959Z,78.94
2023-01-20T16:31:14.792Z,79.13
2023-01-20T16:33:41.447Z,79.03
2023-01-20T16:36:12.696Z,79.24
2023-01-20T16:38:39.619Z,80.06
2023-01-20T16:41:16.767Z,79.58
2023-01-20T16:43:53.680Z,79.46
2023-01-20T16:46:24.387Z,78.91
2023-01-20T16:48:59.191Z,78.71
2023-01-20T16:51:26.660Z,78.73
2023-01-20T16:53:53.585Z,78.15
2023-01-20T16:56:21.450Z,78.74
2023-01-20T16:58:48.488Z,79.42
2023-01-20T17:01:16.723Z,80.03
2023-01-20T17:03:48.087Z,78.99
2023-01-20T17:06:18.644Z,79.16
2023-01-20T17:08:51.739Z,80.24
2023-01-20T17:11:18.407Z,80.16
2023-01-20T17:13:47.500Z,80.25
2023-01-20T17:16:14.275Z,80.34
2023-01-20T17:18:46.198Z,79.07
2023-01-20T17:21:15.713Z,79.61
2023-01-20T17:23:42.321Z,78.90
2023-01-20T17:26:09.432Z,78.71
2023-01-20T17:28:39.153Z,79.10
2023-01-20T17:31:13.340Z,79.63
2023-01-20T17:33:40.036Z,79.62
2023-01-20T17:36:14.821Z,80.58
2023-01-20T17:38:41.716Z,81.29
2023-01-20T17:41:08.435Z,81.13
2023-01-20T17:43:39.987Z,81.37
2023-01-20T17:46:16.693Z,80.90
2023-01-20T17:48:43.771Z,80.39
2023-01-20T17:51:11.241Z,79.88
2023-01-20T17:53:37.922Z,79.41
2023-01-20T17:56:12.881Z,79.92
2023-01-20T17:58:40.425Z,80.22
2023-01-20T18:01:10.411Z,80.68
2023-01-20T18:03:39.674Z,80.31
2023-01-20T18:06:09.624Z,80.05
2023-01-20T18:08:36.287Z,79.77
2023-01-20T18:11:11.482Z,79.59
2023-01-20T18:13:43.202Z,79.75
2023-01-20T18:16:13.658Z,79.57
2023-01-20T18:18:40.936Z,78.71
2023-01-20T18:21:08.739Z,79.06
2023-01-20T18:23:42.600Z,79.05
2023-01-20T18:26:13.765Z,78.66
2023-01-20T18:28:43.499Z,77.92
2023-01-20T18:31:14.552Z,78.33
2023-01-20T18:33:45.743Z,77.99
2023-01-20T18:36:14.800Z,77.71
2023-01-20T18:38:44.191Z,78.13
2023-01-20T18:41:14.272Z,77.58
2023-01-20T18:43:41.131Z,77.25
2023-01-20T18:46:07.986Z,76.95
2023-01-20T18:48:37.674Z,75.55
2023-01-20T18:51:04.490Z,75.98
2023-01-20T18:53:34.170Z,76.27
2023-01-20T18:56:01.376Z,77.11
2023-01-20T18:58:28.782Z,76.59
2023-01-20T19:01:02.679Z,75.31
2023-01-20T19:03:34.170Z,75.43
2023-01-20T19:06:13.280Z,75.84
2023-01-20T19:08:40.115Z,75.64
2023-01-20T19:11:10.181Z,74.75
2023-01-20T19:13:40.136Z,74.62
2023-01-20T19:16:13.011Z,74.86
2023-01-20T19:18:40.374Z,75.00
2023-01-20T19:21:08.187Z,73.96
2023-01-20T19:23:34.861Z,73.81
2023-01-20T19:26:02.460Z,73.74
2023-01-20T19:28:29.103Z,74.52
2023-01-20T19:30:58.237Z,74.18
2023-01-20T19:33:25.154Z,74.84
2023-01-20T19:35:54.325Z,75.13
2023-01-20T19:38:23.486Z,75.96
2023-01-20T19:40:50.162Z,74.78
2023-01-20T19:43:16.867Z,75.19
2023-01-20T19:45:46.330Z,74.76
2023-01-20T19:48:13.371Z,74.02
2023-01-20T19:50:40.160Z,74.41
2023-01-20T19:53:06.794Z,73.60
2023-01-20T19:55:33.528Z,73.60
2023-01-20T19:58:00.127Z,73.48
2023-01-20T20:00:26.832Z,73.31
2023-01-20T20:02:54.664Z,73.89
2023-01-20T20:05:21.341Z,73.80
2023-01-20T20:07:51.225Z,75.06
2023-01-20T20:10:21.266Z,74.79
2023-01-20T20:12:47.931Z,75.35
2023-01-20T20:15:14.680Z,75.74
2023-01-20T20:17:41.336Z,75.47
2023-01-20T20:20:08.190Z,76.17
2023-01-20T20:22:37.186Z,75.37
2023-01-20T20:25:05.819Z,75.34
2023-01-20T20:27:32.384Z,76.11
2023-01-20T20:30:03.155Z,76.55
2023-01-20T20:32:30.085Z,76.01
2023-01-20T20:34:59.455Z,76.39
2023-01-20T20:37:29.109Z,76.20
2023-01-20T20:39:55.792Z,75.90
2023-01-20T20:42:22.406Z,75.72
2023-01-20T20:44:51.505Z,76.08
2023-01-20T20:47:18.404Z,76.32
2023-01-20T20:49:45.036Z,75.87
2023-01-20T20:52:11.667Z,75.93
2023-01-20T20:54:40.648Z,76.10
2023-01-20T20:57:07.749Z,75.94
2023-01-20T20:59:47.242Z,75.59
2023-01-20T21:02:24.837Z,75.21
2023-01-20T21:04:55.049Z,75.16
2023-01-20T21:07:21.809Z,74.87
2023-01-20T21:09:50.729Z,75.47
2023-01-20T21:12:18.060Z,75.95
2023-01-20T21:14:44.746Z,76.09
2023-01-20T21:17:11.403Z,76.33
2023-01-20T21:19:40.307Z,75.53
2023-01-20T21:22:06.903Z,75.39
2023-01-20T21:24:36.297Z,74.63
2023-01-20T21:27:02.978Z,74.86
2023-01-20T21:29:29.620Z,74.71
2023-01-20T21:31:57.519Z,74.11
2023-01-20T21:34:24.103Z,73.97
2023-01-20T21:36:53.037Z,74.16
2023-01-20T21:39:21.929Z,74.48
2023-01-20T21:41:51.386Z,74.16
2023-01-20T21:44:30.839Z,74.37
2023-01-20T21:47:03.352Z,74.72
2023-01-20T21:49:48.744Z,73.97
2023-01-20T21:52:37.749Z,73.58
2023-01-20T21:55:07.126Z,73.39
2023-01-20T21:57:36.358Z,74.22
2023-01-20T22:00:04.041Z,74.03
2023-01-20T22:02:38.756Z,73.85
2023-01-20T22:05:05.579Z,73.57
2023-01-20T22:07:32.196Z,73.55
2023-01-20T22:09:58.873Z,73.76
2023-01-20T22:12:25.532Z,73.71
2023-01-20T22:14:52.094Z,73.96
2023-01-20T22:17:21.124Z,74.28
2023-01-20T22:19:49.803Z,74.73
2023-01-20T22:22:16.367Z,74.78
2023-01-20T22:24:43.006Z,75.16
2023-01-20T22:27:09.649Z,74.73
2023-01-20T22:29:36.254Z,74.67
2023-01-20T22:32:07.735Z,74.92
2023-01-20T22:34:34.404Z,74.74
2023-01-20T22:37:01.118Z,74.26
2023-01-20T22:39:28.203Z,74.83
2023-01-20T22:41:55.177Z,74.58
2023-01-20T22:44:21.789Z,74.51
2023-01-20T22:46:48.374Z,74.94
2023-01-20T22:49:15.027Z,75.57
2023-01-20T22:51:41.752Z,75.11
2023-01-20T22:54:09.544Z,74.39
2023-01-20T22:56:36.142Z,74.34
2023-01-20T22:59:05.292Z,74.15
2023-01-20T23:01:33.518Z,74.76
2023-01-20T23:04:03.508Z,74.15
2023-01-20T23:06:32.665Z,74.44
2023-01-20T23:09:02.735Z,74.01
2023-01-20T23:11:31.959Z,74.11
2023-01-20T23:13:58.524Z,74.21
2023-01-20T23:16:25.251Z,74.04
2023-01-20T23:18:54.252Z,74.44
2023-01-20T23:21:24.408Z,74.56
2023-01-20T23:23:54.875Z,74.51
2023-01-20T23:26:25.860Z,74.94
2023-01-20T23:28:53.684Z,74.26
2023-01-20T23:31:24.088Z,74.47
2023-01-20T23:33:50.802Z,74.57
2023-01-20T23:36:20.715Z,74.31
2023-01-20T23:38:47.430Z,74.64
2023-01-20T23:41:16.354Z,73.87
2023-01-20T23:43:43.083Z,73.79
2023-01-20T23:46:09.787Z,73.00
2023-01-20T23:48:36.525Z,73.45
2023-01-20T23:51:06.526Z,72.52
2023-01-20T23:53:33.806Z,72.12
2023-01-20T23:56:01.662Z,72.91
2023-01-20T23:58:28.262Z,72.68
